Time;durP1;ratioP1;P1;durP2;ratioP2;P2;SDS_P1;SDS_P2;PMS_P1;PMS_P2;Temp;Humidity;BMP_temperature;BMP_pressure;BME280_temperature;BME280_humidity;BME280_pressure;Samples;Min_cycle;Max_cycle;Signal;HPM_P1;HPM_P2
2022/12/16 00:00:29;;;;;;;44.05;26.75;;;-0.10;99.90;;;;;;5028237;28;20052;-58
2022/12/16 00:02:54;;;;;;;42.25;26.52;;;-0.20;99.90;;;;;;5030072;28;20053;-58
2022/12/16 00:05:20;;;;;;;45.42;25.77;;;-0.20;99.90;;;;;;5024726;28;20131;-58
2022/12/16 00:07:47;;;;;;;40.33;24.48;;;-0.20;99.90;;;;;;5024523;28;20045;-58
2022/12/16 00:10:14;;;;;;;43.17;26.45;;;-0.30;99.90;;;;;;5026885;28;20041;-57
2022/12/16 00:12:40;;;;;;;35.33;23.75;;;-0.30;99.90;;;;;;5027199;28;20045;-57
2022/12/16 00:15:06;;;;;;;32.75;20.75;;;-0.30;99.90;;;;;;5026281;28;20045;-55
2022/12/16 00:17:31;;;;;;;34.40;21.63;;;-0.30;99.90;;;;;;5030620;28;20064;-57
2022/12/16 00:19:57;;;;;;;33.83;20.65;;;-0.30;99.90;;;;;;5029626;28;20044;-56
2022/12/16 00:22:23;;;;;;;30.27;19.83;;;-0.40;99.90;;;;;;5030103;28;20474;-57
2022/12/16 00:24:49;;;;;;;29.50;19.23;;;-0.40;99.90;;;;;;5033760;28;20045;-57
2022/12/16 00:27:15;;;;;;;30.55;19.50;;;-0.30;99.90;;;;;;5029312;28;20041;-58
2022/12/16 00:29:40;;;;;;;29.08;18.30;;;-0.40;99.90;;;;;;5026079;28;20111;-57
2022/12/16 00:32:06;;;;;;;25.70;13.05;;;-0.40;99.90;;;;;;5030127;28;20411;-56
2022/12/16 00:34:32;;;;;;;20.00;10.13;;;-0.40;99.90;;;;;;5031657;28;20364;-58
2022/12/16 00:36:58;;;;;;;13.95;7.90;;;-0.30;99.90;;;;;;5028261;28;22209;-55
2022/12/16 00:39:24;;;;;;;12.52;6.65;;;-0.20;99.90;;;;;;5027542;28;20048;-53
2022/12/16 00:41:50;;;;;;;12.15;5.97;;;-0.10;99.90;;;;;;5028838;28;20049;-57
2022/12/16 00:44:16;;;;;;;12.50;6.40;;;0.00;99.90;;;;;;5028912;28;20034;-57
2022/12/16 00:46:42;;;;;;;12.13;5.75;;;0.10;99.90;;;;;;5029103;28;20107;-58
2022/12/16 00:49:08;;;;;;;11.90;5.97;;;0.20;99.90;;;;;;5024703;28;20181;-57
2022/12/16 00:51:34;;;;;;;9.85;5.22;;;0.30;99.90;;;;;;5025050;28;20493;-57
2022/12/16 00:54:00;;;;;;;9.85;5.28;;;0.40;99.90;;;;;;5029125;28;20086;-57
2022/12/16 00:56:26;;;;;;;10.20;5.85;;;0.60;99.90;;;;;;5030480;28;20073;-56
2022/12/16 00:58:52;;;;;;;10.75;5.18;;;0.60;99.90;;;;;;5028114;28;20043;-54
2022/12/16 01:01:18;;;;;;;10.52;5.80;;;0.70;99.90;;;;;;5025783;28;20051;-58
2022/12/16 01:03:44;;;;;;;10.20;5.45;;;0.90;99.90;;;;;;5025862;28;20126;-58
2022/12/16 01:06:15;;;;;;;9.95;5.50;;;0.90;99.90;;;;;;5024998;28;20499;-57
2022/12/16 01:08:48;;;;;;;8.15;5.03;;;1.00;99.90;;;;;;5024951;28;20049;-56
2022/12/16 01:11:19;;;;;;;8.98;5.40;;;1.00;99.90;;;;;;5025836;28;20057;-56
2022/12/16 01:13:48;;;;;;;11.32;5.10;;;1.00;99.90;;;;;;5026521;28;20368;-55
2022/12/16 01:16:14;;;;;;;8.43;5.55;;;1.00;99.90;;;;;;5023384;28;20049;-56
2022/12/16 01:18:40;;;;;;;9.60;4.90;;;1.00;99.90;;;;;;5023790;28;20076;-54
2022/12/16 01:21:07;;;;;;;10.05;4.72;;;1.00;99.90;;;;;;5027431;28;20136;-58
2022/12/16 01:23:34;;;;;;;9.98;5.45;;;1.10;99.90;;;;;;5028818;28;20053;-56
2022/12/16 01:26:01;;;;;;;9.02;4.93;;;1.00;99.90;;;;;;5025359;28;20048;-56
2022/12/16 01:28:27;;;;;;;8.77;5.25;;;1.10;99.90;;;;;;5025282;28;20391;-56
2022/12/16 01:31:00;;;;;;;7.78;5.13;;;1.10;99.90;;;;;;5025472;28;20638;-55
2022/12/16 01:33:28;;;;;;;6.32;4.25;;;1.10;99.90;;;;;;5023683;28;20159;-58
2022/12/16 01:36:03;;;;;;;10.80;4.10;;;1.20;99.90;;;;;;5027046;28;23809;-57
2022/12/16 01:38:29;;;;;;;5.95;4.40;;;1.20;99.90;;;;;;5024516;28;20046;-57
2022/12/16 01:40:56;;;;;;;6.55;4.68;;;1.20;99.90;;;;;;5025769;28;21112;-55
2022/12/16 01:43:26;;;;;;;7.90;5.18;;;1.20;99.90;;;;;;5029244;28;20049;-56
2022/12/16 01:45:59;;;;;;;9.60;4.72;;;1.30;99.90;;;;;;5026623;28;20049;-56
2022/12/16 01:48:37;;;;;;;7.13;4.72;;;1.30;99.90;;;;;;5030746;28;20164;-56
2022/12/16 01:51:12;;;;;;;6.97;5.03;;;1.30;99.90;;;;;;5028466;28;20135;-57
2022/12/16 01:53:42;;;;;;;10.93;5.40;;;1.30;99.90;;;;;;5031102;28;20131;-55
2022/12/16 01:56:09;;;;;;;8.63;5.65;;;1.30;99.90;;;;;;5018585;28;20048;-56
2022/12/16 01:58:39;;;;;;;12.25;5.50;;;1.30;99.90;;;;;;5027286;28;20096;-58
2022/12/16 02:01:05;;;;;;;11.48;5.57;;;1.30;99.90;;;;;;5029125;28;20055;-55
2022/12/16 02:03:34;;;;;;;8.55;5.53;;;1.20;99.90;;;;;;5029076;28;20627;-57
2022/12/16 02:06:01;;;;;;;9.30;5.50;;;1.20;99.90;;;;;;5029739;28;20135;-57
2022/12/16 02:08:27;;;;;;;8.55;5.28;;;1.30;99.90;;;;;;5030762;28;20079;-57
2022/12/16 02:11:29;;;;;;;7.00;4.82;;;1.20;99.90;;;;;;5026845;28;21170;-58
2022/12/16 02:14:16;;;;;;;9.38;5.18;;;1.20;99.90;;;;;;5028673;28;20057;-58
2022/12/16 02:16:50;;;;;;;7.85;5.53;;;1.20;99.90;;;;;;5027502;28;20065;-56
2022/12/16 02:19:42;;;;;;;8.20;5.60;;;1.20;99.90;;;;;;5032253;28;20135;-58
2022/12/16 02:22:31;;;;;;;8.80;5.72;;;1.20;99.90;;;;;;5030321;28;20099;-57
2022/12/16 02:25:49;;;;;;;7.30;5.93;;;1.10;99.90;;;;;;5030964;28;20114;-57
2022/12/16 02:28:31;;;;;;;9.93;6.00;;;1.10;99.90;;;;;;4958735;28;20837;-58
2022/12/16 02:31:19;;;;;;;12.00;6.38;;;1.10;99.90;;;;;;5028875;28;20041;-58
2022/12/16 02:34:00;;;;;;;9.40;6.35;;;1.10;99.90;;;;;;5028572;28;20657;-58
2022/12/16 02:36:56;;;;;;;11.57;6.60;;;1.10;99.90;;;;;;5028332;28;20566;-57
2022/12/16 02:39:28;;;;;;;11.85;6.22;;;1.10;99.90;;;;;;5031186;28;20041;-55
2022/12/16 02:42:34;;;;;;;12.00;6.70;;;1.10;99.90;;;;;;5030394;28;20037;-57
2022/12/16 02:45:11;;;;;;;9.13;5.88;;;1.10;99.90;;;;;;5013467;28;20588;-58
2022/12/16 02:47:38;;;;;;;9.13;6.35;;;1.10;99.90;;;;;;5029233;28;20045;-57
2022/12/16 02:50:14;;;;;;;9.10;5.95;;;1.10;99.90;;;;;;5030344;28;20052;-57
2022/12/16 02:52:40;;;;;;;9.32;5.60;;;1.10;99.90;;;;;;5030087;28;20144;-57
2022/12/16 02:55:08;;;;;;;8.02;5.57;;;1.20;99.90;;;;;;5029934;28;20054;-56
2022/12/16 02:57:58;;;;;;;12.05;5.60;;;1.20;99.90;;;;;;5029077;28;20058;-57
2022/12/16 03:00:25;;;;;;;11.40;5.63;;;1.20;99.90;;;;;;5028325;28;20137;-58
2022/12/16 03:03:00;;;;;;;11.18;5.82;;;1.20;99.90;;;;;;5028779;28;20189;-56
2022/12/16 03:05:50;;;;;;;12.18;6.47;;;1.20;99.90;;;;;;5026752;28;20049;-58
2022/12/16 03:08:26;;;;;;;9.93;6.72;;;1.30;99.90;;;;;;5028178;28;20056;-56
2022/12/16 03:10:58;;;;;;;11.32;6.78;;;1.30;99.90;;;;;;5026473;28;20048;-56
2022/12/16 03:13:28;;;;;;;11.90;7.50;;;1.30;99.90;;;;;;5025327;28;24306;-57
2022/12/16 03:15:57;;;;;;;14.18;7.50;;;1.30;99.90;;;;;;5024585;28;20052;-55
2022/12/16 03:18:23;;;;;;;10.27;7.75;;;1.40;99.90;;;;;;5029760;28;20040;-56
2022/12/16 03:20:57;;;;;;;11.73;8.55;;;1.40;99.90;;;;;;5027966;28;20049;-57
2022/12/16 03:23:37;;;;;;;15.43;9.30;;;1.40;99.90;;;;;;5025810;28;20376;-55
2022/12/16 03:26:08;;;;;;;15.60;10.13;;;1.40;99.90;;;;;;5025432;28;20040;-53
2022/12/16 03:28:48;;;;;;;23.90;12.02;;;1.40;99.90;;;;;;5027090;28;20442;-58
2022/12/16 03:31:36;;;;;;;22.42;13.18;;;1.50;99.90;;;;;;5007330;28;20053;-55
2022/12/16 03:34:10;;;;;;;22.55;14.18;;;1.50;99.90;;;;;;5029247;28;20053;-56
2022/12/16 03:36:38;;;;;;;29.50;18.17;;;1.50;99.90;;;;;;5028373;28;20449;-55
2022/12/16 03:39:05;;;;;;;28.80;20.33;;;1.50;99.90;;;;;;5024717;28;20083;-54
2022/12/16 03:41:33;;;;;;;36.47;23.02;;;1.60;99.90;;;;;;5024545;28;20064;-57
2022/12/16 03:43:59;;;;;;;41.03;25.05;;;1.60;99.90;;;;;;5023134;28;20053;-56
2022/12/16 03:46:25;;;;;;;43.88;27.35;;;1.60;99.90;;;;;;5023308;28;20500;-56
2022/12/16 03:48:51;;;;;;;50.55;30.05;;;1.60;99.90;;;;;;5027559;28;20080;-58
2022/12/16 03:51:19;;;;;;;50.50;29.25;;;1.60;99.90;;;;;;5029513;28;20128;-55
2022/12/16 03:53:45;;;;;;;56.97;31.30;;;1.60;99.90;;;;;;5011972;28;20052;-57
2022/12/16 03:56:11;;;;;;;51.55;31.30;;;1.60;99.90;;;;;;5025221;28;20087;-58
2022/12/16 03:58:41;;;;;;;53.80;32.42;;;1.50;99.90;;;;;;5026699;28;20053;-58
2022/12/16 04:01:08;;;;;;;56.67;32.38;;;1.50;99.90;;;;;;5025509;28;20048;-56
2022/12/16 04:03:35;;;;;;;57.58;32.20;;;1.50;99.90;;;;;;5028557;28;20053;-57
2022/12/16 04:06:01;;;;;;;50.17;31.10;;;1.50;99.90;;;;;;5027860;28;20087;-56
2022/12/16 04:08:27;;;;;;;59.38;32.33;;;1.50;99.90;;;;;;5028763;28;20051;-56
2022/12/16 04:25:25;;;;;;;70.00;34.95;;;1.30;99.90;;;;;;5025085;28;20060;-57
2022/12/16 04:27:51;;;;;;;72.78;35.65;;;1.20;99.90;;;;;;5026035;28;20048;-55
2022/12/16 04:30:18;;;;;;;77.90;36.63;;;1.20;99.90;;;;;;5027689;28;20503;-54
